createdAt,value
2019-02-27T00:02:02.555Z,14.81
2019-02-27T00:04:35.553Z,14.81
2019-02-27T00:07:07.597Z,14.64
2019-02-27T00:09:39.481Z,14.64
2019-02-27T00:12:11.100Z,14.78
2019-02-27T00:14:42.969Z,14.76
2019-02-27T00:17:15.142Z,14.88
2019-02-27T00:19:47.956Z,14.88
2019-02-27T00:22:20.246Z,14.88
2019-02-27T00:24:52.438Z,14.58
2019-02-27T00:27:23.826Z,14.56
2019-02-27T00:29:55.626Z,14.58
2019-02-27T00:32:27.382Z,14.64
2019-02-27T00:34:58.859Z,14.68
2019-02-27T00:37:30.427Z,14.50
2019-02-27T00:40:05.387Z,14.50
2019-02-27T00:42:35.272Z,14.62
2019-02-27T00:45:07.695Z,14.59
2019-02-27T00:47:39.605Z,14.37
2019-02-27T00:50:12.386Z,14.74
2019-02-27T00:52:45.401Z,14.61
2019-02-27T00:55:16.775Z,14.61
2019-02-27T00:57:48.531Z,14.54
2019-02-27T01:00:20.597Z,14.68
2019-02-27T01:02:53.452Z,14.72
2019-02-27T01:05:25.458Z,14.72
2019-02-27T01:07:59.260Z,14.77
2019-02-27T01:10:31.093Z,14.69
2019-02-27T01:13:02.907Z,14.84
2019-02-27T01:15:34.858Z,14.69
2019-02-27T01:18:06.609Z,14.47
2019-02-27T01:20:38.320Z,14.47
2019-02-27T01:23:11.073Z,14.65
2019-02-27T01:25:43.604Z,14.62
2019-02-27T01:28:15.324Z,14.62
2019-02-27T01:30:47.055Z,14.52
2019-02-27T01:33:19.324Z,14.45
2019-02-27T01:35:52.273Z,14.47
2019-02-27T01:38:24.019Z,14.48
2019-02-27T01:40:58.723Z,14.48
2019-02-27T01:43:30.463Z,14.49
2019-02-27T01:46:02.556Z,14.49
2019-02-27T01:48:34.656Z,14.52
2019-02-27T01:51:06.531Z,14.62
2019-02-27T01:53:40.496Z,14.79
2019-02-27T01:56:13.213Z,14.79
2019-02-27T01:58:44.727Z,14.61
2019-02-27T02:01:16.687Z,14.85
2019-02-27T02:03:49.045Z,14.61
2019-02-27T02:06:20.691Z,15.02
2019-02-27T02:09:09.914Z,15.02
2019-02-27T02:11:43.656Z,14.93
2019-02-27T02:14:48.514Z,15.28
2019-02-27T02:17:47.043Z,15.28
2019-02-27T02:20:38.691Z,15.47
2019-02-27T02:23:49.710Z,15.30
2019-02-27T02:27:07.996Z,15.18
2019-02-27T02:30:34.787Z,15.18
2019-02-27T02:33:43.639Z,15.57
2019-02-27T02:36:38.358Z,15.57
2019-02-27T02:39:38.408Z,15.82
2019-02-27T02:42:41.938Z,15.75
2019-02-27T02:45:32.729Z,15.87
2019-02-27T02:48:32.340Z,16.00
2019-02-27T02:51:47.878Z,16.18
2019-02-27T02:55:14.749Z,16.18
2019-02-27T02:58:32.778Z,16.05
2019-02-27T03:01:15.236Z,16.05
2019-02-27T03:04:05.668Z,17.80
2019-02-27T03:07:13.517Z,17.85
2019-02-27T03:10:18.116Z,17.85
2019-02-27T03:13:33.389Z,17.75
2019-02-27T03:16:42.373Z,17.98
2019-02-27T03:19:43.148Z,18.11
2019-02-27T03:23:04.701Z,18.11
2019-02-27T03:25:58.055Z,18.20
2019-02-27T03:29:16.068Z,18.27
2019-02-27T03:32:05.233Z,18.27
2019-02-27T03:35:09.126Z,18.36
2019-02-27T03:38:05.762Z,18.36
2019-02-27T03:41:22.484Z,18.26
2019-02-27T03:44:20.707Z,18.26
2019-02-27T03:47:24.752Z,18.54
2019-02-27T03:50:25.697Z,18.54
2019-02-27T03:53:18.224Z,18.59
2019-02-27T03:56:12.586Z,18.59
2019-02-27T03:59:06.323Z,18.55
2019-02-27T04:02:11.060Z,18.72
2019-02-27T04:05:21.264Z,18.06
2019-02-27T04:08:29.338Z,18.06
2019-02-27T04:11:05.543Z,18.68
2019-02-27T04:13:34.243Z,18.67
2019-02-27T04:16:05.685Z,18.51
2019-02-27T04:18:34.747Z,18.66
2019-02-27T04:21:06.869Z,18.49
2019-02-27T04:23:38.571Z,18.79
2019-02-27T04:26:10.292Z,18.79
2019-02-27T04:28:41.894Z,18.82
2019-02-27T04:31:13.766Z,18.85
2019-02-27T04:33:45.607Z,18.72
2019-02-27T04:36:18.706Z,18.72
2019-02-27T04:38:50.281Z,18.97
2019-02-27T04:41:22.206Z,18.97
2019-02-27T04:43:53.862Z,19.03
2019-02-27T04:46:25.416Z,18.94
2019-02-27T04:48:57.187Z,19.05
2019-02-27T04:51:28.807Z,19.05
2019-02-27T04:54:00.382Z,18.67
2019-02-27T04:56:31.858Z,18.67
2019-02-27T04:59:03.591Z,18.22
2019-02-27T05:01:36.664Z,18.72
2019-02-27T05:04:08.547Z,18.79
2019-02-27T05:06:40.236Z,18.79
2019-02-27T05:09:13.088Z,19.02
2019-02-27T05:11:47.566Z,18.96
2019-02-27T05:14:18.144Z,18.85
2019-02-27T05:16:49.715Z,18.88
2019-02-27T05:19:22.449Z,18.89
2019-02-27T05:21:54.023Z,18.97
2019-02-27T05:24:27.501Z,19.06
2019-02-27T05:27:00.833Z,19.26
2019-02-27T05:29:32.525Z,19.31
2019-02-27T05:32:04.047Z,19.09
2019-02-27T05:34:35.719Z,19.15
2019-02-27T05:37:07.200Z,19.09
2019-02-27T05:39:38.832Z,19.24
2019-02-27T05:42:10.499Z,19.37
2019-02-27T05:44:42.464Z,19.35
2019-02-27T05:47:14.179Z,19.24
2019-02-27T05:49:45.583Z,19.34
2019-02-27T05:52:17.030Z,19.53
2019-02-27T05:54:48.804Z,19.41
2019-02-27T05:57:23.258Z,19.37
2019-02-27T05:59:54.642Z,19.37
2019-02-27T06:02:26.393Z,19.29
2019-02-27T06:05:00.578Z,19.29
2019-02-27T06:07:32.274Z,19.35
2019-02-27T06:10:04.029Z,19.35
2019-02-27T06:12:39.992Z,19.29
2019-02-27T06:15:11.135Z,19.33
2019-02-27T06:17:43.760Z,19.17
2019-02-27T06:20:17.140Z,19.26
2019-02-27T06:22:49.015Z,19.20
2019-02-27T06:25:23.377Z,19.35
2019-02-27T06:27:54.077Z,19.36
2019-02-27T06:30:30.324Z,19.49
2019-02-27T06:32:59.296Z,19.64
2019-02-27T06:35:34.174Z,19.84
2019-02-27T06:38:04.836Z,19.83
2019-02-27T06:40:36.501Z,19.64
2019-02-27T06:43:08.639Z,19.74
2019-02-27T06:45:45.190Z,19.83
2019-02-27T06:48:14.626Z,19.83
2019-02-27T06:50:46.272Z,19.81
2019-02-27T06:53:19.901Z,19.56
2019-02-27T06:55:52.114Z,19.76
2019-02-27T06:58:24.287Z,19.84
2019-02-27T07:00:56.300Z,19.97
2019-02-27T07:03:30.955Z,20.05
2019-02-27T07:06:03.176Z,20.05
2019-02-27T07:08:38.183Z,20.10
2019-02-27T07:11:11.369Z,20.22
2019-02-27T07:13:44.501Z,20.22
2019-02-27T07:16:17.030Z,19.60
2019-02-27T07:18:48.946Z,20.24
2019-02-27T07:21:21.869Z,20.36
2019-02-27T07:23:57.727Z,20.36
2019-02-27T07:26:27.944Z,20.32
2019-02-27T07:29:00.068Z,20.28
2019-02-27T07:31:35.207Z,20.54
2019-02-27T07:34:06.889Z,20.54
2019-02-27T07:36:50.685Z,20.51
2019-02-27T07:39:23.850Z,20.51
2019-02-27T07:41:56.372Z,20.60
2019-02-27T07:44:29.043Z,20.68
2019-02-27T07:47:02.799Z,20.59
2019-02-27T07:49:36.167Z,20.35
2019-02-27T07:52:08.468Z,20.41
2019-02-27T07:54:45.042Z,20.44
2019-02-27T07:57:17.620Z,20.44
2019-02-27T07:59:54.895Z,19.99
2019-02-27T08:02:27.548Z,20.14
2019-02-27T08:05:01.183Z,20.19
2019-02-27T08:07:43.294Z,20.25
2019-02-27T08:10:19.089Z,20.25
2019-02-27T08:12:55.572Z,19.92
2019-02-27T08:15:27.475Z,20.37
2019-02-27T08:18:04.698Z,20.52
2019-02-27T08:20:37.192Z,20.52
2019-02-27T08:23:09.891Z,20.39
2019-02-27T08:25:42.539Z,20.54
2019-02-27T08:28:15.017Z,20.60
2019-02-27T08:30:48.501Z,20.31
2019-02-27T08:33:21.330Z,20.53
2019-02-27T08:35:55.229Z,20.29
2019-02-27T08:38:29.214Z,20.29
2019-02-27T08:41:01.844Z,20.18
2019-02-27T08:43:34.486Z,20.18
2019-02-27T08:46:06.817Z,20.67
2019-02-27T08:48:39.466Z,20.63
2019-02-27T08:51:12.032Z,20.26
2019-02-27T08:53:45.063Z,20.49
2019-02-27T08:56:17.422Z,20.68
2019-02-27T08:58:50.374Z,20.68
2019-02-27T09:01:22.851Z,21.07
2019-02-27T09:03:55.293Z,21.07
2019-02-27T09:06:28.262Z,21.05
2019-02-27T09:09:01.815Z,20.91
2019-02-27T09:11:37.196Z,20.96
2019-02-27T09:14:12.328Z,20.82
2019-02-27T09:16:44.986Z,20.82
2019-02-27T09:19:17.951Z,20.55
2019-02-27T09:21:51.073Z,20.60
2019-02-27T09:24:24.423Z,20.58
2019-02-27T09:26:58.107Z,20.56
2019-02-27T09:29:30.770Z,20.47
2019-02-27T09:32:03.704Z,20.47
2019-02-27T09:34:37.865Z,20.57
2019-02-27T09:37:16.361Z,20.57
2019-02-27T09:39:48.019Z,20.45
2019-02-27T09:42:20.942Z,20.45
2019-02-27T09:44:53.888Z,20.67
2019-02-27T09:47:28.632Z,20.37
2019-02-27T09:50:03.627Z,20.86
2019-02-27T09:52:37.713Z,20.92
2019-02-27T09:55:12.554Z,20.93
2019-02-27T09:57:48.012Z,20.55
2019-02-27T10:00:38.422Z,20.70
2019-02-27T10:03:13.634Z,20.57
2019-02-27T10:05:46.261Z,20.57
2019-02-27T10:08:19.109Z,20.04
2019-02-27T10:10:53.871Z,20.15
2019-02-27T10:13:32.000Z,20.43
2019-02-27T10:16:05.440Z,20.43
2019-02-27T10:18:38.533Z,20.61
2019-02-27T10:21:22.273Z,20.35
2019-02-27T10:23:58.055Z,20.35
2019-02-27T10:26:35.678Z,20.37
2019-02-27T10:29:10.888Z,20.31
2019-02-27T10:31:44.735Z,20.29
2019-02-27T10:34:20.852Z,20.29
2019-02-27T10:37:05.624Z,20.54
2019-02-27T10:39:41.626Z,20.60
2019-02-27T10:42:16.805Z,20.65
2019-02-27T10:44:49.521Z,20.65
2019-02-27T10:47:22.866Z,20.73
2019-02-27T10:50:01.889Z,20.70
2019-02-27T10:52:34.497Z,20.69
2019-02-27T10:55:11.278Z,20.69
2019-02-27T10:57:43.417Z,20.69
2019-02-27T11:00:20.111Z,20.67
2019-02-27T11:02:54.579Z,20.72
2019-02-27T11:05:34.250Z,20.67
2019-02-27T11:08:15.893Z,20.65
2019-02-27T11:10:49.130Z,20.44
2019-02-27T11:13:25.235Z,20.44
2019-02-27T11:15:59.217Z,20.39
2019-02-27T11:18:32.190Z,20.54
2019-02-27T11:21:05.712Z,20.57
2019-02-27T11:23:41.116Z,20.57
2019-02-27T11:26:14.023Z,20.54
2019-02-27T11:28:47.708Z,20.64
2019-02-27T11:31:22.072Z,20.47
2019-02-27T11:33:55.849Z,20.47
2019-02-27T11:36:30.955Z,20.13
2019-02-27T11:39:06.813Z,20.01
2019-02-27T11:41:42.156Z,19.52
2019-02-27T11:44:15.727Z,19.95
2019-02-27T11:46:58.425Z,20.26
2019-02-27T11:49:23.823Z,20.26
2019-02-27T11:51:57.086Z,20.10
2019-02-27T11:54:30.629Z,20.08
2019-02-27T11:57:02.573Z,19.38
2019-02-27T11:59:36.639Z,19.41
2019-02-27T12:02:09.047Z,19.41
2019-02-27T12:04:41.359Z,18.14
2019-02-27T12:07:17.243Z,18.70
2019-02-27T12:09:47.916Z,19.08
2019-02-27T12:12:22.507Z,19.31
2019-02-27T12:14:53.167Z,19.52
2019-02-27T12:17:25.682Z,19.43
2019-02-27T12:19:57.250Z,19.44
2019-02-27T12:22:32.955Z,19.44
2019-02-27T12:25:04.354Z,19.64
2019-02-27T12:27:48.273Z,18.13
2019-02-27T12:30:12.582Z,19.31
2019-02-27T12:32:44.108Z,18.78
2019-02-27T12:35:21.351Z,18.78
2019-02-27T12:37:53.123Z,17.62
2019-02-27T12:40:26.118Z,18.52
2019-02-27T12:42:57.980Z,19.38
2019-02-27T12:45:29.885Z,19.38
2019-02-27T12:48:01.625Z,19.48
2019-02-27T12:50:33.926Z,19.69
2019-02-27T12:53:08.915Z,19.69
2019-02-27T12:55:43.006Z,18.37
2019-02-27T12:58:17.067Z,18.63
2019-02-27T13:00:48.602Z,18.53
2019-02-27T13:03:21.117Z,17.25
2019-02-27T13:05:52.519Z,17.30
2019-02-27T13:08:24.064Z,17.37
2019-02-27T13:10:55.536Z,16.78
2019-02-27T13:13:26.933Z,16.78
2019-02-27T13:15:58.112Z,17.41
2019-02-27T13:18:32.068Z,17.73
2019-02-27T13:21:02.830Z,17.42
2019-02-27T13:23:36.405Z,17.75
2019-02-27T13:26:07.908Z,17.75
2019-02-27T13:28:39.722Z,18.22
2019-02-27T13:31:13.683Z,18.22
2019-02-27T13:33:46.411Z,18.45
2019-02-27T13:36:18.324Z,18.38
2019-02-27T13:38:52.176Z,18.38
2019-02-27T13:41:23.834Z,18.52
2019-02-27T13:43:58.181Z,18.62
2019-02-27T13:46:29.203Z,18.62
2019-02-27T13:49:01.473Z,18.66
2019-02-27T13:51:33.891Z,18.49
2019-02-27T13:54:06.561Z,18.42
2019-02-27T13:56:38.625Z,18.17
2019-02-27T13:59:11.045Z,18.17
2019-02-27T14:01:44.797Z,18.24
2019-02-27T14:04:19.592Z,18.24
2019-02-27T14:06:50.364Z,18.40
2019-02-27T14:09:21.958Z,18.40
2019-02-27T14:11:58.416Z,18.39
2019-02-27T14:14:27.461Z,18.17
2019-02-27T14:16:59.107Z,18.30
2019-02-27T14:19:30.643Z,18.31
2019-02-27T14:22:02.159Z,18.31
2019-02-27T14:24:34.835Z,18.57
2019-02-27T14:27:12.068Z,18.57
2019-02-27T14:29:45.918Z,18.33
2019-02-27T14:32:17.363Z,18.46
2019-02-27T14:34:48.966Z,18.47
2019-02-27T14:37:20.425Z,18.31
2019-02-27T14:39:51.991Z,18.24
2019-02-27T14:42:24.745Z,18.36
2019-02-27T14:44:56.163Z,18.36
2019-02-27T14:47:27.516Z,18.51
2019-02-27T14:50:00.141Z,18.39
2019-02-27T14:52:33.182Z,18.42
2019-02-27T14:55:04.998Z,18.46
2019-02-27T14:57:36.603Z,18.46
2019-02-27T15:00:11.210Z,18.41
2019-02-27T15:02:44.610Z,18.38
2019-02-27T15:05:16.291Z,18.38
2019-02-27T15:07:47.937Z,18.20
2019-02-27T15:10:19.746Z,18.00
2019-02-27T15:12:54.972Z,18.00
2019-02-27T15:15:26.382Z,18.14
2019-02-27T15:17:58.077Z,17.98
2019-02-27T15:20:29.923Z,17.98
2019-02-27T15:23:01.740Z,17.72
2019-02-27T15:25:33.445Z,17.77
2019-02-27T15:28:05.006Z,17.56
2019-02-27T15:30:37.115Z,17.56
2019-02-27T15:33:08.790Z,17.74
2019-02-27T15:35:40.436Z,17.68
2019-02-27T15:38:12.443Z,17.63
2019-02-27T15:40:44.307Z,17.63
2019-02-27T15:43:17.470Z,17.21
2019-02-27T15:45:49.196Z,16.85
2019-02-27T15:48:20.832Z,16.85
2019-02-27T15:50:56.337Z,15.46
2019-02-27T15:53:26.202Z,14.93
2019-02-27T15:55:59.634Z,15.05
2019-02-27T15:58:32.923Z,15.13
2019-02-27T16:01:04.361Z,14.96
2019-02-27T16:03:36.198Z,14.94
2019-02-27T16:06:07.951Z,14.94
2019-02-27T16:08:39.540Z,15.01
2019-02-27T16:11:11.056Z,15.00
2019-02-27T16:13:42.913Z,14.96
2019-02-27T16:16:14.515Z,14.96
2019-02-27T16:18:45.982Z,15.18
2019-02-27T16:21:17.778Z,14.79
2019-02-27T16:23:50.651Z,14.88
2019-02-27T16:26:27.027Z,15.11
2019-02-27T16:28:56.203Z,15.11
2019-02-27T16:31:27.898Z,14.99
2019-02-27T16:33:59.557Z,14.83
2019-02-27T16:36:36.276Z,14.83
2019-02-27T16:39:07.426Z,15.01
2019-02-27T16:41:41.193Z,15.01
2019-02-27T16:44:12.699Z,14.86
2019-02-27T16:46:44.938Z,14.85
2019-02-27T16:49:16.782Z,14.80
2019-02-27T16:51:48.373Z,14.76
2019-02-27T16:54:19.715Z,14.76
2019-02-27T16:56:51.463Z,14.85
2019-02-27T16:59:23.640Z,14.93
2019-02-27T17:01:56.799Z,14.93
2019-02-27T17:04:28.178Z,14.69
2019-02-27T17:06:59.722Z,14.76
2019-02-27T17:09:31.610Z,14.76
2019-02-27T17:12:04.269Z,14.81
2019-02-27T17:14:39.272Z,14.61
2019-02-27T17:17:11.698Z,14.55
2019-02-27T17:19:43.351Z,14.69
2019-02-27T17:22:15.383Z,14.69
2019-02-27T17:24:47.193Z,14.61
2019-02-27T17:27:19.005Z,14.43
2019-02-27T17:29:50.540Z,14.43
2019-02-27T17:32:22.364Z,14.45
2019-02-27T17:34:54.059Z,14.32
2019-02-27T17:37:25.849Z,14.32
2019-02-27T17:39:59.295Z,14.28
2019-02-27T17:42:31.986Z,14.28
2019-02-27T17:45:03.714Z,14.38
2019-02-27T17:47:35.978Z,14.38
2019-02-27T17:50:07.897Z,14.33
2019-02-27T17:52:39.644Z,14.33
2019-02-27T17:55:11.600Z,14.52
2019-02-27T17:57:43.018Z,14.25
2019-02-27T18:00:21.605Z,14.25
2019-02-27T18:02:54.156Z,14.27
2019-02-27T18:05:27.416Z,14.15
2019-02-27T18:07:58.788Z,14.15
2019-02-27T18:10:30.237Z,14.15
2019-02-27T18:13:02.099Z,14.01
2019-02-27T18:15:33.475Z,13.94
2019-02-27T18:18:07.501Z,13.80
2019-02-27T18:24:38.146Z,14.39
2019-02-27T18:27:10.001Z,14.39
2019-02-27T18:29:43.730Z,14.27
2019-02-27T18:32:14.912Z,14.26
2019-02-27T18:34:47.357Z,14.40
2019-02-27T18:37:21.696Z,14.03
2019-02-27T18:39:53.456Z,14.03
2019-02-27T18:42:25.001Z,13.97
2019-02-27T18:44:57.658Z,13.99
2019-02-27T18:47:28.944Z,14.19
2019-02-27T18:50:00.372Z,14.17
2019-02-27T18:52:32.302Z,14.17
2019-02-27T18:55:04.065Z,14.07
2019-02-27T18:57:35.598Z,14.03
2019-02-27T19:00:09.336Z,14.05
2019-02-27T19:02:41.438Z,14.25
2019-02-27T19:05:13.418Z,14.18
2019-02-27T19:07:45.320Z,14.18
2019-02-27T19:10:18.557Z,14.14
2019-02-27T19:12:50.248Z,13.74
2019-02-27T19:15:22.352Z,13.74
2019-02-27T19:17:54.390Z,14.01
2019-02-27T19:20:28.438Z,13.94
2019-02-27T19:23:00.473Z,13.94
2019-02-27T19:25:34.767Z,13.73
2019-02-27T19:28:05.930Z,13.73
2019-02-27T19:30:38.688Z,13.61
2019-02-27T19:33:11.344Z,13.66
2019-02-27T19:35:42.999Z,13.80
2019-02-27T19:38:14.768Z,13.88
2019-02-27T19:40:46.293Z,13.95
2019-02-27T19:43:18.142Z,13.95
2019-02-27T19:45:51.277Z,13.82
2019-02-27T19:48:23.017Z,13.87
2019-02-27T19:50:54.747Z,13.87
2019-02-27T19:53:26.475Z,13.90
2019-02-27T19:56:00.730Z,13.90
2019-02-27T19:58:31.625Z,13.79
2019-02-27T20:01:08.733Z,13.60
2019-02-27T20:03:37.560Z,13.69
2019-02-27T20:06:09.397Z,13.92
2019-02-27T20:08:44.750Z,13.72
2019-02-27T20:11:14.648Z,13.86
2019-02-27T20:13:46.944Z,13.86
2019-02-27T20:16:20.701Z,13.71
2019-02-27T20:18:54.852Z,13.71
2019-02-27T20:21:25.048Z,13.58
2019-02-27T20:24:01.478Z,13.67
2019-02-27T20:26:33.939Z,13.69
2019-02-27T20:29:06.445Z,13.69
2019-02-27T20:31:37.899Z,13.83
2019-02-27T20:34:11.589Z,13.83
2019-02-27T20:36:42.956Z,13.91
2019-02-27T20:39:14.740Z,13.77
2019-02-27T20:41:46.489Z,13.67
2019-02-27T20:44:19.046Z,13.67
2019-02-27T20:46:50.929Z,13.59
2019-02-27T20:49:22.469Z,13.59
2019-02-27T20:51:54.167Z,13.57
2019-02-27T20:54:25.811Z,13.51
2019-02-27T20:56:57.511Z,13.51
2019-02-27T20:59:29.119Z,13.35
2019-02-27T21:02:00.684Z,13.42
2019-02-27T21:04:35.255Z,13.46
2019-02-27T21:07:06.018Z,13.15
2019-02-27T21:09:37.899Z,13.55
2019-02-27T21:12:09.551Z,13.54
2019-02-27T21:14:41.370Z,13.54
2019-02-27T21:17:12.917Z,13.39
2019-02-27T21:19:44.600Z,13.38
2019-02-27T21:22:16.943Z,13.16
2019-02-27T21:24:48.460Z,13.28
2019-02-27T21:27:21.139Z,13.18
2019-02-27T21:29:53.616Z,13.42
2019-02-27T21:32:25.497Z,13.42
2019-02-27T21:34:57.320Z,13.33
2019-02-27T21:37:29.133Z,13.23
2019-02-27T21:40:03.059Z,13.23
2019-02-27T21:42:34.272Z,13.23
2019-02-27T21:45:06.507Z,13.16
2019-02-27T21:47:38.856Z,13.15
2019-02-27T21:50:11.564Z,13.15
2019-02-27T21:52:43.195Z,13.16
2019-02-27T21:55:14.996Z,13.16
2019-02-27T21:57:46.968Z,13.16
2019-02-27T22:00:22.516Z,13.16
2019-02-27T22:02:55.267Z,13.09
2019-02-27T22:05:26.932Z,12.91
2019-02-27T22:07:58.652Z,12.91
2019-02-27T22:10:32.292Z,13.09
2019-02-27T22:13:09.302Z,13.15
2019-02-27T22:15:37.398Z,13.19
2019-02-27T22:18:11.779Z,13.19
2019-02-27T22:20:42.332Z,12.98
2019-02-27T22:23:14.987Z,12.98
2019-02-27T22:25:46.816Z,12.97
2019-02-27T22:28:19.952Z,12.97
2019-02-27T22:30:51.099Z,13.00
2019-02-27T22:33:23.174Z,12.91
2019-02-27T22:35:54.866Z,12.80
2019-02-27T22:38:26.843Z,12.80
2019-02-27T22:40:58.691Z,13.05
2019-02-27T22:43:30.278Z,12.85
2019-02-27T22:46:01.896Z,12.85
2019-02-27T22:48:33.304Z,12.73
2019-02-27T22:51:04.850Z,12.90
2019-02-27T22:53:36.446Z,12.99
2019-02-27T22:56:08.119Z,12.70
2019-02-27T22:58:39.497Z,12.95
2019-02-27T23:01:22.077Z,12.89
2019-02-27T23:04:02.746Z,12.89
2019-02-27T23:06:34.472Z,12.79
2019-02-27T23:09:09.133Z,12.75
2019-02-27T23:11:41.556Z,12.77
2019-02-27T23:14:13.348Z,12.77
2019-02-27T23:16:46.762Z,12.94
2019-02-27T23:19:18.053Z,12.77
2019-02-27T23:21:49.785Z,12.77
2019-02-27T23:24:21.686Z,12.59
2019-02-27T23:26:54.775Z,12.57
2019-02-27T23:29:26.654Z,12.57
2019-02-27T23:31:58.341Z,12.60
2019-02-27T23:34:29.959Z,12.27
2019-02-27T23:37:01.551Z,12.34
2019-02-27T23:39:33.342Z,12.41
2019-02-27T23:42:05.292Z,12.47
2019-02-27T23:44:38.782Z,12.47
2019-02-27T23:47:10.528Z,12.91
2019-02-27T23:49:42.436Z,12.62
2019-02-27T23:52:14.776Z,12.62
2019-02-27T23:54:46.363Z,12.53
2019-02-27T23:57:18.077Z,12.45
2019-02-27T23:59:49.626Z,12.79
